Time;durP1;ratioP1;P1;durP2;ratioP2;P2;SDS_P1;SDS_P2;PMS_P1;PMS_P2;Temp;Humidity;BMP_temperature;BMP_pressure;BME280_temperature;BME280_humidity;BME280_pressure;Samples;Min_cycle;Max_cycle;Signal;HPM_P1;HPM_P2
2022/01/05 00:00:22;;;;;;;;;;;7.10;99.90;;;;;;5045102;28;19929;-76
2022/01/05 00:02:48;;;;;;;;;;;7.00;99.90;;;;;;5044916;28;19929;-76
2022/01/05 00:05:15;;;;;;;;;;;7.10;99.90;;;;;;5046682;28;19936;-76
2022/01/05 00:07:41;;;;;;;;;;;7.10;99.90;;;;;;5045993;28;19935;-76
2022/01/05 00:10:08;;;;;;;;;;;7.00;99.90;;;;;;5044167;28;19933;-76
2022/01/05 00:12:35;;;;;;;;;;;7.00;99.90;;;;;;5042086;28;19952;-76
2022/01/05 00:15:01;;;;;;;;;;;7.00;99.90;;;;;;5042523;28;19936;-76
2022/01/05 00:17:29;;;;;;;;;;;7.00;99.90;;;;;;5038865;28;19928;-76
2022/01/05 00:19:56;;;;;;;;;;;7.00;99.90;;;;;;5042902;28;19940;-76
2022/01/05 00:22:23;;;;;;;;;;;7.00;99.90;;;;;;5041503;28;19928;-77
2022/01/05 00:24:49;;;;;;;;;;;7.00;99.90;;;;;;5040323;28;19935;-76
2022/01/05 00:27:17;;;;;;;;;;;7.00;99.90;;;;;;5042697;28;19929;-76
2022/01/05 00:29:43;;;;;;;;;;;7.00;99.90;;;;;;5039952;28;19936;-76
2022/01/05 00:32:10;;;;;;;;;;;7.00;99.90;;;;;;5044354;28;19935;-76
2022/01/05 00:34:38;;;;;;;;;;;7.00;99.90;;;;;;5046834;28;19936;-74
2022/01/05 00:37:05;;;;;;;;;;;7.00;99.90;;;;;;5045862;28;19932;-76
2022/01/05 00:39:31;;;;;;;;;;;7.00;99.90;;;;;;5043581;28;20518;-76
2022/01/05 00:41:58;;;;;;;;;;;7.00;99.90;;;;;;5048268;28;19932;-76
2022/01/05 00:44:25;;;;;;;;;;;7.00;99.90;;;;;;5045006;28;19940;-76
2022/01/05 00:46:51;;;;;;;;;;;7.00;99.90;;;;;;5040020;28;20020;-76
2022/01/05 00:49:18;;;;;;;;;;;7.00;99.90;;;;;;5037511;28;19936;-76
2022/01/05 00:51:46;;;;;;;;;;;7.00;99.90;;;;;;5042424;28;19928;-76
2022/01/05 00:54:12;;;;;;;;;;;7.00;99.90;;;;;;5045314;28;20414;-76
2022/01/05 00:56:39;;;;;;;;;;;7.00;99.90;;;;;;5046875;28;19928;-75
2022/01/05 00:59:05;;;;;;;;;;;6.90;99.90;;;;;;5048741;28;19987;-76
2022/01/05 01:01:32;;;;;;;;;;;7.00;99.90;;;;;;5041196;28;19941;-76
2022/01/05 01:03:58;;;;;;;;;;;7.00;99.90;;;;;;5044597;28;20015;-76
2022/01/05 01:06:25;;;;;;;;;;;7.00;99.90;;;;;;5044780;28;20442;-77
2022/01/05 01:08:53;;;;;;;;;;;7.00;99.90;;;;;;5044899;28;19958;-77
2022/01/05 01:11:19;;;;;;;;;;;7.00;99.90;;;;;;5044240;28;19929;-77
2022/01/05 01:13:46;;;;;;;;;;;7.00;99.90;;;;;;5048793;28;20016;-76
2022/01/05 01:16:12;;;;;;;;;;;7.00;99.90;;;;;;5037646;28;20438;-77
2022/01/05 01:18:39;;;;;;;;;;;7.00;99.90;;;;;;5042869;28;19937;-75
2022/01/05 01:21:06;;;;;;;;;;;7.00;99.90;;;;;;5044148;28;19964;-77
2022/01/05 01:23:32;;;;;;;;;;;7.00;99.90;;;;;;5044260;28;19929;-76
2022/01/05 01:26:00;;;;;;;;;;;7.00;99.90;;;;;;5044641;28;19940;-77
2022/01/05 01:28:26;;;;;;;;;;;7.00;99.90;;;;;;5039608;28;19975;-76
2022/01/05 01:30:53;;;;;;;;;;;7.00;99.90;;;;;;5039666;28;19933;-76
2022/01/05 01:33:20;;;;;;;;;;;7.00;99.90;;;;;;5036208;28;19936;-76
2022/01/05 01:35:46;;;;;;;;;;;6.90;99.90;;;;;;5035694;28;19929;-76
2022/01/05 01:38:13;;;;;;;;;;;7.00;99.90;;;;;;5040395;28;19929;-76
2022/01/05 01:40:40;;;;;;;;;;;7.00;99.90;;;;;;5038362;28;19929;-76
2022/01/05 01:43:08;;;;;;;;;;;7.00;99.90;;;;;;5033052;28;20313;-76
2022/01/05 01:45:35;;;;;;;;;;;6.90;99.90;;;;;;5033374;28;19933;-77
2022/01/05 01:48:01;;;;;;;;;;;7.00;99.90;;;;;;5044436;28;20435;-76
2022/01/05 01:50:28;;;;;;;;;;;6.90;99.90;;;;;;5042951;28;20392;-77
2022/01/05 01:52:54;;;;;;;;;;;7.00;99.90;;;;;;5048248;28;19929;-76
2022/01/05 01:55:21;;;;;;;;;;;7.00;99.90;;;;;;5048831;28;20359;-77
2022/01/05 01:57:48;;;;;;;;;;;7.00;99.90;;;;;;5045835;28;20404;-77
2022/01/05 02:00:16;;;;;;;;;;;6.90;99.90;;;;;;5042085;28;19928;-76
2022/01/05 02:02:43;;;;;;;;;;;6.90;99.90;;;;;;5048390;28;19929;-76
2022/01/05 02:05:10;;;;;;;;;;;6.90;99.90;;;;;;5046947;28;19952;-77
2022/01/05 02:07:37;;;;;;;;;;;6.90;99.90;;;;;;5052348;28;19935;-77
2022/01/05 02:10:04;;;;;;;;;;;6.90;99.90;;;;;;5048018;28;19936;-76
2022/01/05 02:12:30;;;;;;;;;;;6.90;99.90;;;;;;5049155;28;20803;-75
2022/01/05 02:14:57;;;;;;;;;;;7.00;99.90;;;;;;5047480;28;19929;-76
2022/01/05 02:17:41;;;;;;;;;;;6.90;99.90;;;;;;5048177;28;19982;-77
2022/01/05 02:20:12;;;;;;;;;;;6.90;99.90;;;;;;5045722;28;19925;-77
2022/01/05 02:22:40;;;;;;;;;;;6.90;99.90;;;;;;5043191;28;19943;-76
2022/01/05 02:25:07;;;;;;;;;;;6.90;99.90;;;;;;5051708;28;19944;-77
2022/01/05 02:27:33;;;;;;;;;;;7.00;99.90;;;;;;5047243;28;19928;-77
2022/01/05 02:30:00;;;;;;;;;;;6.90;99.90;;;;;;5042836;28;19929;-76
2022/01/05 02:32:26;;;;;;;;;;;7.00;99.90;;;;;;5054720;28;19940;-77
2022/01/05 02:34:53;;;;;;;;;;;6.90;99.90;;;;;;5049814;28;19933;-76
2022/01/05 02:37:19;;;;;;;;;;;6.90;99.90;;;;;;5047428;28;20456;-76
2022/01/05 02:39:47;;;;;;;;;;;6.90;99.90;;;;;;5048946;28;19936;-76
2022/01/05 02:45:17;;;;;;;;;;;6.90;99.90;;;;;;5038072;28;20392;-76
2022/01/05 02:47:44;;;;;;;;;;;6.90;99.90;;;;;;5044606;28;19947;-76
2022/01/05 02:50:11;;;;;;;;;;;6.90;99.90;;;;;;5043861;28;19929;-76
2022/01/05 02:52:38;;;;;;;;;;;6.90;99.90;;;;;;5052570;28;19932;-77
2022/01/05 02:55:06;;;;;;;;;;;6.90;99.90;;;;;;5046616;28;20552;-77
2022/01/05 02:57:32;;;;;;;;;;;6.90;99.90;;;;;;5047182;28;19932;-77
2022/01/05 02:59:59;;;;;;;;;;;6.90;99.90;;;;;;5041874;28;19925;-77
2022/01/05 03:02:26;;;;;;;;;;;6.90;99.90;;;;;;5046461;28;19933;-77
2022/01/05 03:04:52;;;;;;;;;;;6.90;99.90;;;;;;5046536;28;20247;-77
2022/01/05 03:07:19;;;;;;;;;;;6.90;99.90;;;;;;5049971;28;19936;-76
2022/01/05 03:09:45;;;;;;;;;;;6.90;99.90;;;;;;5045184;28;19936;-76
2022/01/05 03:12:13;;;;;;;;;;;6.90;99.90;;;;;;5047129;28;19936;-77
2022/01/05 03:14:40;;;;;;;;;;;6.90;99.90;;;;;;5047382;28;19951;-76
2022/01/05 03:17:06;;;;;;;;;;;6.90;99.90;;;;;;5044022;28;19932;-77
2022/01/05 03:19:33;;;;;;;;;;;6.90;99.90;;;;;;5049152;28;19929;-76
2022/01/05 03:22:00;;;;;;;;;;;6.90;99.90;;;;;;5048730;28;19929;-76
2022/01/05 03:24:26;;;;;;;;;;;6.90;99.90;;;;;;5044477;28;19932;-76
2022/01/05 03:26:53;;;;;;;;;;;6.90;99.90;;;;;;5047564;28;19935;-77
2022/01/05 03:29:20;;;;;;;;;;;6.90;99.90;;;;;;5048799;28;19929;-76
2022/01/05 03:31:47;;;;;;;;;;;6.90;99.90;;;;;;5041831;28;19937;-76
2022/01/05 03:34:18;;;;;;;;;;;6.90;99.90;;;;;;5050360;28;19933;-76
2022/01/05 03:36:44;;;;;;;;;;;6.90;99.90;;;;;;5045892;28;19994;-75
2022/01/05 03:39:11;;;;;;;;;;;6.90;99.90;;;;;;5049407;28;19936;-75
2022/01/05 03:41:37;;;;;;;;;;;6.90;99.90;;;;;;5042097;28;19936;-76
2022/01/05 03:44:04;;;;;;;;;;;6.90;99.90;;;;;;5049186;28;20281;-77
2022/01/05 03:46:33;;;;;;;;;;;6.90;99.90;;;;;;5045212;28;19930;-76
2022/01/05 03:48:59;;;;;;;;;;;6.90;99.90;;;;;;5043070;28;19932;-76
2022/01/05 03:51:26;;;;;;;;;;;6.90;99.90;;;;;;5042108;28;19929;-77
2022/01/05 03:53:53;;;;;;;;;;;6.90;99.90;;;;;;5044675;28;19940;-76
2022/01/05 03:56:19;;;;;;;;;;;6.80;99.90;;;;;;5045255;28;20003;-77
2022/01/05 03:58:46;;;;;;;;;;;6.80;99.90;;;;;;5048032;28;20343;-77
2022/01/05 04:01:12;;;;;;;;;;;6.90;99.90;;;;;;5037492;28;19936;-76
2022/01/05 04:03:40;;;;;;;;;;;6.90;99.90;;;;;;5048820;28;19929;-76
2022/01/05 04:06:07;;;;;;;;;;;6.90;99.90;;;;;;5046440;28;20391;-76
2022/01/05 04:08:33;;;;;;;;;;;6.90;99.90;;;;;;5051656;28;20510;-77
2022/01/05 04:11:00;;;;;;;;;;;6.80;99.90;;;;;;5046670;28;20390;-77
2022/01/05 04:13:26;;;;;;;;;;;6.90;99.90;;;;;;5046899;28;19940;-77
2022/01/05 04:15:53;;;;;;;;;;;6.80;99.90;;;;;;5040516;28;19933;-77
2022/01/05 04:18:19;;;;;;;;;;;6.80;99.90;;;;;;5046095;28;20485;-76
2022/01/05 04:20:47;;;;;;;;;;;6.80;99.90;;;;;;5043363;28;20464;-76
2022/01/05 04:23:14;;;;;;;;;;;6.80;99.90;;;;;;5049948;28;19991;-76
2022/01/05 04:25:40;;;;;;;;;;;6.80;99.80;;;;;;5046485;28;19936;-76
2022/01/05 04:28:07;;;;;;;;;;;6.80;99.70;;;;;;5051531;28;19931;-76
2022/01/05 04:30:33;;;;;;;;;;;6.80;99.70;;;;;;5042800;28;19936;-76
2022/01/05 04:33:00;;;;;;;;;;;6.80;99.60;;;;;;5047898;28;19932;-76
2022/01/05 04:35:27;;;;;;;;;;;6.80;99.50;;;;;;5044851;28;19929;-76
2022/01/05 04:37:54;;;;;;;;;;;6.70;99.50;;;;;;5044105;28;19990;-76
2022/01/05 04:40:21;;;;;;;;;;;6.80;99.50;;;;;;5042244;28;19929;-76
2022/01/05 04:42:48;;;;;;;;;;;6.70;99.40;;;;;;5036973;28;19929;-76
2022/01/05 04:45:14;;;;;;;;;;;6.70;99.40;;;;;;5038658;28;20071;-76
2022/01/05 04:47:41;;;;;;;;;;;6.70;99.40;;;;;;5042372;28;19929;-76
2022/01/05 04:50:08;;;;;;;;;;;6.70;99.40;;;;;;5042038;28;19925;-76
2022/01/05 04:52:34;;;;;;;;;;;6.70;99.50;;;;;;5035181;28;19928;-76
2022/01/05 04:55:02;;;;;;;;;;;6.70;99.50;;;;;;5043090;28;19929;-76
2022/01/05 04:57:29;;;;;;;;;;;6.70;99.50;;;;;;5043097;28;19932;-76
2022/01/05 04:59:55;;;;;;;;;;;6.60;99.50;;;;;;5039414;28;19939;-76
2022/01/05 05:02:22;;;;;;;;;;;6.60;99.60;;;;;;5030291;28;19936;-76
2022/01/05 05:04:49;;;;;;;;;;;6.60;99.60;;;;;;5032794;28;20028;-76
2022/01/05 05:07:15;;;;;;;;;;;6.60;99.60;;;;;;5037658;28;19940;-77
2022/01/05 05:09:42;;;;;;;;;;;6.60;99.60;;;;;;5039273;28;19933;-76
2022/01/05 05:12:10;;;;;;;;;;;6.60;99.60;;;;;;5041932;28;20011;-76
2022/01/05 05:14:37;;;;;;;;;;;6.60;99.70;;;;;;5043447;28;19933;-76
2022/01/05 05:17:04;;;;;;;;;;;6.60;99.60;;;;;;5034763;28;19929;-77
2022/01/05 05:19:31;;;;;;;;;;;6.50;99.60;;;;;;5038720;28;19940;-76
2022/01/05 05:21:58;;;;;;;;;;;6.50;99.60;;;;;;5040675;28;19933;-76
2022/01/05 05:24:24;;;;;;;;;;;6.50;99.60;;;;;;5041886;28;19925;-76
2022/01/05 05:26:51;;;;;;;;;;;6.50;99.60;;;;;;5036004;28;19935;-76
2022/01/05 05:29:19;;;;;;;;;;;6.50;99.50;;;;;;5039377;28;19936;-76
2022/01/05 05:31:45;;;;;;;;;;;6.50;99.50;;;;;;5036164;28;19936;-76
2022/01/05 05:34:12;;;;;;;;;;;6.50;99.50;;;;;;5044552;28;19929;-76
2022/01/05 05:36:38;;;;;;;;;;;6.40;99.40;;;;;;5043809;28;20639;-76
2022/01/05 05:39:05;;;;;;;;;;;6.40;99.40;;;;;;5042952;28;19936;-76
2022/01/05 05:41:31;;;;;;;;;;;6.40;99.30;;;;;;5042285;28;19936;-76
2022/01/05 05:43:58;;;;;;;;;;;6.40;99.30;;;;;;5043611;28;19929;-77
2022/01/05 05:46:26;;;;;;;;;;;6.40;99.30;;;;;;5047025;28;19932;-77
2022/01/05 05:48:52;;;;;;;;;;;6.40;99.30;;;;;;5057374;28;19935;-77
2022/01/05 05:51:19;;;;;;;;;;;6.40;99.30;;;;;;5061923;28;20265;-76
2022/01/05 05:53:45;;;;;;;;;;;6.30;99.30;;;;;;5058378;28;20675;-77
2022/01/05 05:56:12;;;;;;;;;;;6.30;99.30;;;;;;5062140;28;19940;-76
2022/01/05 05:58:39;;;;;;;;;;;6.30;99.30;;;;;;5065890;28;19930;-76
2022/01/05 06:01:05;;;;;;;;;;;6.30;99.30;;;;;;5049572;28;19932;-76
2022/01/05 06:03:33;;;;;;;;;;;6.30;99.40;;;;;;5040704;28;20622;-76
2022/01/05 06:05:59;;;;;;;;;;;6.30;99.40;;;;;;5039301;28;19933;-76
2022/01/05 06:08:26;;;;;;;;;;;6.30;99.40;;;;;;5048638;28;20160;-77
2022/01/05 06:10:53;;;;;;;;;;;6.30;99.30;;;;;;5048421;28;19952;-76
2022/01/05 06:13:19;;;;;;;;;;;6.30;99.30;;;;;;5038558;28;19960;-76
2022/01/05 06:15:46;;;;;;;;;;;6.30;99.20;;;;;;5037036;28;19928;-76
2022/01/05 06:18:12;;;;;;;;;;;6.20;99.10;;;;;;5037096;28;19929;-76
2022/01/05 06:20:40;;;;;;;;;;;6.20;98.50;;;;;;5032383;28;19933;-77
2022/01/05 06:23:07;;;;;;;;;;;6.10;97.50;;;;;;5037091;28;19933;-77
2022/01/05 06:25:33;;;;;;;;;;;6.10;97.60;;;;;;5037666;28;19936;-77
2022/01/05 06:28:00;;;;;;;;;;;6.00;97.60;;;;;;5040215;28;20034;-77
2022/01/05 06:30:26;;;;;;;;;;;6.00;97.60;;;;;;5039340;28;20455;-77
2022/01/05 06:32:53;;;;;;;;;;;6.00;97.70;;;;;;5043857;28;20375;-77
2022/01/05 06:35:23;;;;;;;;;;;6.00;97.80;;;;;;5037615;28;20762;-76
2022/01/05 06:37:51;;;;;;;;;;;6.00;98.00;;;;;;5039018;28;19929;-69
2022/01/05 06:40:18;;;;;;;;;;;6.00;98.10;;;;;;5041527;28;19948;-69
2022/01/05 06:42:44;;;;;;;;;;;6.00;98.10;;;;;;5045882;28;19937;-69
2022/01/05 06:45:11;;;;;;;;;;;6.00;98.20;;;;;;5042054;28;20463;-70
2022/01/05 06:47:37;;;;;;;;;;;6.00;98.30;;;;;;5040267;28;19937;-69
2022/01/05 06:50:04;;;;;;;;;;;6.00;98.30;;;;;;5039168;28;20444;-70
2022/01/05 06:52:31;;;;;;;;;;;5.90;98.30;;;;;;5044400;28;19933;-69
2022/01/05 06:54:59;;;;;;;;;;;5.90;98.30;;;;;;5036143;28;19929;-69
2022/01/05 06:57:25;;;;;;;;;;;5.90;98.20;;;;;;5036808;28;19932;-69
2022/01/05 06:59:52;;;;;;;;;;;5.90;98.20;;;;;;5038314;28;19933;-68
2022/01/05 07:02:18;;;;;;;;;;;5.90;98.20;;;;;;5042322;28;19936;-69
2022/01/05 07:04:45;;;;;;;;;;;5.80;98.10;;;;;;5046084;28;19940;-69
2022/01/05 07:07:11;;;;;;;;;;;5.80;98.10;;;;;;5042816;28;19973;-70
2022/01/05 07:09:38;;;;;;;;;;;5.80;98.10;;;;;;5039770;28;19932;-70
2022/01/05 07:12:07;;;;;;;;;;;5.80;98.10;;;;;;5040780;28;19978;-69
2022/01/05 07:14:33;;;;;;;;;;;5.80;98.00;;;;;;5043474;28;19929;-69
2022/01/05 07:17:00;;;;;;;;;;;5.80;98.00;;;;;;5036944;28;19940;-70
2022/01/05 07:19:26;;;;;;;;;;;5.70;98.00;;;;;;5041427;28;19928;-69
2022/01/05 07:21:53;;;;;;;;;;;5.70;97.90;;;;;;5042939;28;19935;-70
2022/01/05 07:24:19;;;;;;;;;;;5.70;97.90;;;;;;5041532;28;19932;-69
2022/01/05 07:26:46;;;;;;;;;;;5.70;97.90;;;;;;5044810;28;19986;-70
2022/01/05 07:29:15;;;;;;;;;;;5.60;97.80;;;;;;5043398;28;19928;-68
2022/01/05 07:31:42;;;;;;;;;;;5.70;97.80;;;;;;5034306;28;19933;-69
2022/01/05 07:34:08;;;;;;;;;;;5.60;97.70;;;;;;5033048;28;19933;-69
2022/01/05 07:36:35;;;;;;;;;;;5.60;97.70;;;;;;5033495;28;19986;-69
2022/01/05 07:39:03;;;;;;;;;;;5.60;97.70;;;;;;5033482;28;20385;-69
2022/01/05 07:41:30;;;;;;;;;;;5.60;97.70;;;;;;5037371;28;19924;-70
2022/01/05 07:43:56;;;;;;;;;;;5.50;97.70;;;;;;5038519;28;20012;-69
2022/01/05 07:46:24;;;;;;;;;;;5.50;97.60;;;;;;5039458;28;19924;-69
2022/01/05 07:48:50;;;;;;;;;;;5.50;97.90;;;;;;5041740;28;19940;-68
2022/01/05 07:51:17;;;;;;;;;;;5.40;97.50;;;;;;5044140;28;20261;-69
2022/01/05 07:53:44;;;;;;;;;;;5.40;97.50;;;;;;5041024;28;20396;-76
2022/01/05 07:56:10;;;;;;;;;;;5.40;97.50;;;;;;5038117;28;20393;-76
2022/01/05 07:58:37;;;;;;;;;;;5.40;97.50;;;;;;5040110;28;19951;-76
2022/01/05 08:01:04;;;;;;;;;;;5.40;97.60;;;;;;5040118;28;19933;-76
2022/01/05 08:03:33;;;;;;;;;;;5.40;97.50;;;;;;5042433;28;20211;-76
2022/01/05 08:06:00;;;;;;;;;;;5.30;97.50;;;;;;5040529;28;19936;-76
2022/01/05 08:08:26;;;;;;;;;;;5.30;97.50;;;;;;5041866;28;19936;-76
2022/01/05 08:10:53;;;;;;;;;;;5.30;97.50;;;;;;5033869;28;19936;-75
2022/01/05 08:13:19;;;;;;;;;;;5.30;97.50;;;;;;5043699;28;19933;-77
2022/01/05 08:15:46;;;;;;;;;;;5.20;97.50;;;;;;5041373;28;19937;-75
2022/01/05 08:18:13;;;;;;;;;;;5.20;97.50;;;;;;5042651;28;19929;-75
2022/01/05 08:20:41;;;;;;;;;;;5.20;97.50;;;;;;5042445;28;19928;-76
2022/01/05 08:23:07;;;;;;;;;;;5.20;97.50;;;;;;5043245;28;19929;-76
2022/01/05 08:25:34;;;;;;;;;;;5.20;97.50;;;;;;5037844;28;19924;-76
2022/01/05 08:28:00;;;;;;;;;;;5.20;97.50;;;;;;5043484;28;19931;-76
2022/01/05 08:30:27;;;;;;;;;;;5.10;97.50;;;;;;5036774;28;19979;-76
2022/01/05 08:32:54;;;;;;;;;;;5.10;97.60;;;;;;5041896;28;19925;-76
2022/01/05 08:35:23;;;;;;;;;;;5.10;97.50;;;;;;5040619;28;19929;-76
2022/01/05 08:37:51;;;;;;;;;;;5.10;97.50;;;;;;5042111;28;19936;-75
2022/01/05 08:40:19;;;;;;;;;;;5.10;97.40;;;;;;5040738;28;20274;-77
2022/01/05 08:42:46;;;;;;;;;;;5.10;97.40;;;;;;5042202;28;20457;-76
2022/01/05 08:45:14;;;;;;;;;;;5.00;97.20;;;;;;5037857;28;20057;-75
2022/01/05 08:47:41;;;;;;;;;;;5.00;97.10;;;;;;5042822;28;19933;-75
2022/01/05 08:50:08;;;;;;;;;;;5.00;96.90;;;;;;5041524;28;19928;-76
2022/01/05 08:52:34;;;;;;;;;;;5.00;96.80;;;;;;5041522;28;19959;-76
2022/01/05 08:55:02;;;;;;;;;;;5.00;96.80;;;;;;5041749;28;20624;-75
2022/01/05 08:57:28;;;;;;;;;;;5.00;96.80;;;;;;5040458;28;20308;-75
2022/01/05 08:59:55;;;;;;;;;;;5.00;96.70;;;;;;5039254;28;19929;-75
2022/01/05 09:02:22;;;;;;;;;;;4.90;96.60;;;;;;5042144;28;19974;-75
2022/01/05 09:04:51;;;;;;;;;;;4.90;96.50;;;;;;5041126;28;19936;-75
2022/01/05 09:07:18;;;;;;;;;;;4.90;96.50;;;;;;5041556;28;19933;-75
2022/01/05 09:09:45;;;;;;;;;;;4.90;96.50;;;;;;5037116;28;19929;-76
2022/01/05 09:12:13;;;;;;;;;;;4.90;96.50;;;;;;5042326;28;20020;-75
2022/01/05 09:14:40;;;;;;;;;;;4.90;96.40;;;;;;5042285;28;19928;-75
2022/01/05 09:17:07;;;;;;;;;;;4.90;96.30;;;;;;5040277;28;19933;-75
2022/01/05 09:19:34;;;;;;;;;;;4.80;96.10;;;;;;5042898;28;19936;-75
2022/01/05 09:22:00;;;;;;;;;;;4.80;96.00;;;;;;5043669;28;19936;-75
2022/01/05 09:24:27;;;;;;;;;;;4.80;96.00;;;;;;5042446;28;19937;-75
2022/01/05 09:26:56;;;;;;;;;;;4.80;96.00;;;;;;5043068;28;19932;-75
2022/01/05 09:29:24;;;;;;;;;;;4.80;95.90;;;;;;5043163;28;19929;-76
2022/01/05 09:31:51;;;;;;;;;;;4.80;95.90;;;;;;5055162;28;19929;-76
2022/01/05 09:34:17;;;;;;;;;;;4.80;95.90;;;;;;5049541;28;20316;-76
2022/01/05 09:36:48;;;;;;;;;;;4.70;95.90;;;;;;5062651;28;19935;-75
2022/01/05 09:42:00;;;;;;;;;;;4.70;95.80;;;;;;5061284;28;19935;-75
2022/01/05 09:44:29;;;;;;;;;;;4.70;95.60;;;;;;5060602;28;19940;-75
2022/01/05 09:47:02;;;;;;;;;;;4.70;95.40;;;;;;5044741;28;19993;-76
2022/01/05 09:49:32;;;;;;;;;;;4.60;95.20;;;;;;5038451;28;19940;-75
2022/01/05 09:52:03;;;;;;;;;;;4.70;95.20;;;;;;5041725;28;19932;-76
2022/01/05 09:54:29;;;;;;;;;;;4.70;95.10;;;;;;5042187;28;19928;-75
2022/01/05 09:56:56;;;;;;;;;;;4.70;95.10;;;;;;5039136;28;20008;-75
2022/01/05 09:59:23;;;;;;;;;;;4.60;95.10;;;;;;5045685;23;19928;-75
2022/01/05 10:01:51;;;;;;;;;;;4.60;95.10;;;;;;5035288;28;19934;-76
2022/01/05 10:04:19;;;;;;;;;;;4.60;95.00;;;;;;5042885;28;20131;-77
2022/01/05 10:06:47;;;;;;;;;;;4.60;94.90;;;;;;5034255;28;20442;-76
2022/01/05 10:09:14;;;;;;;;;;;4.60;94.90;;;;;;5040286;28;19936;-76
2022/01/05 10:11:41;;;;;;;;;;;4.60;94.80;;;;;;5020209;28;20347;-76
2022/01/05 10:14:11;;;;;;;;;;;4.60;94.50;;;;;;5026684;28;19959;-76
2022/01/05 10:16:38;;;;;;;;;;;4.60;94.30;;;;;;5024322;28;19929;-77
2022/01/05 10:19:08;;;;;;;;;;;4.60;94.20;;;;;;5021432;28;19933;-75
2022/01/05 10:21:36;;;;;;;;;;;4.60;94.20;;;;;;5031663;28;20269;-76
2022/01/05 10:24:03;;;;;;;;;;;4.60;94.40;;;;;;5021982;28;19929;-76
2022/01/05 10:26:31;;;;;;;;;;;4.60;94.20;;;;;;5026887;28;19935;-76
2022/01/05 10:28:58;;;;;;;;;;;4.50;94.50;;;;;;5026683;28;19929;-76
2022/01/05 10:31:26;;;;;;;;;;;4.60;94.20;;;;;;5023844;28;19936;-75
2022/01/05 10:33:52;;;;;;;;;;;4.60;94.20;;;;;;5024011;28;19929;-76
2022/01/05 10:36:20;;;;;;;;;;;4.60;94.20;;;;;;5020009;28;19939;-76
2022/01/05 10:38:53;;;;;;;;;;;4.60;94.10;;;;;;5021274;28;19968;-76
2022/01/05 10:41:21;;;;;;;;;;;4.60;94.10;;;;;;5022033;28;19929;-77
2022/01/05 10:44:06;;;;;;;;;;;4.60;94.10;;;;;;5024557;28;20036;-76
2022/01/05 10:46:33;;;;;;;;;;;4.60;94.50;;;;;;5023497;28;19955;-75
2022/01/05 10:49:00;;;;;;;;;;;4.50;94.00;;;;;;5022039;28;19936;-75
2022/01/05 10:51:30;;;;;;;;;;;4.60;93.80;;;;;;5020415;28;19929;-76
2022/01/05 10:54:09;;;;;;;;;;;4.60;93.50;;;;;;5021671;28;19936;-76
2022/01/05 10:56:36;;;;;;;;;;;4.60;93.40;;;;;;5026245;28;19967;-76
2022/01/05 10:59:03;;;;;;;;;;;4.60;93.40;;;;;;5022689;28;20388;-76
2022/01/05 11:01:30;;;;;;;;;;;4.60;93.10;;;;;;5021161;28;20022;-76
2022/01/05 11:03:57;;;;;;;;;;;4.60;92.90;;;;;;5019992;28;19929;-76
2022/01/05 11:06:23;;;;;;;;;;;4.60;92.80;;;;;;5022461;28;19929;-76
2022/01/05 11:08:52;;;;;;;;;;;4.60;92.60;;;;;;5023556;28;20405;-76
2022/01/05 11:11:29;;;;;;;;;;;4.70;92.40;;;;;;5017827;28;20019;-76
2022/01/05 11:13:56;;;;;;;;;;;4.60;92.50;;;;;;5016672;28;19980;-76
2022/01/05 11:16:26;;;;;;;;;;;4.60;92.60;;;;;;5020674;28;19933;-76
2022/01/05 11:19:11;;;;;;;;;;;4.70;92.70;;;;;;5018250;28;19936;-75
2022/01/05 11:21:38;;;;;;;;;;;4.60;92.60;;;;;;5022368;28;19940;-76
2022/01/05 11:24:06;;;;;;;;;;;4.70;92.50;;;;;;5022766;28;20056;-75
2022/01/05 11:26:35;;;;;;;;;;;4.60;92.40;;;;;;5025693;28;19933;-78
2022/01/05 11:29:03;;;;;;;;;;;4.60;92.40;;;;;;5021543;28;19933;-76
2022/01/05 11:31:31;;;;;;;;;;;4.70;92.40;;;;;;5021926;28;19933;-76
2022/01/05 11:33:58;;;;;;;;;;;4.70;92.40;;;;;;5025032;28;19929;-74
2022/01/05 11:36:25;;;;;;;;;;;4.60;92.40;;;;;;5021351;28;19936;-76
2022/01/05 11:38:52;;;;;;;;;;;4.70;92.40;;;;;;5021201;28;22004;-76
2022/01/05 11:41:20;;;;;;;;;;;4.70;92.30;;;;;;5022108;28;20007;-76
2022/01/05 11:43:47;;;;;;;;;;;4.70;92.30;;;;;;5021883;28;19980;-77
2022/01/05 11:46:14;;;;;;;;;;;4.60;92.20;;;;;;5021521;28;19929;-75
2022/01/05 11:48:41;;;;;;;;;;;4.70;92.10;;;;;;5023378;28;19936;-77
2022/01/05 11:51:07;;;;;;;;;;;4.70;91.70;;;;;;5023529;28;19929;-77
2022/01/05 11:53:37;;;;;;;;;;;4.70;91.80;;;;;;5019078;28;19960;-76
2022/01/05 11:56:05;;;;;;;;;;;4.70;91.80;;;;;;5022958;28;20018;-77
2022/01/05 11:58:34;;;;;;;;;;;4.60;91.80;;;;;;5024292;28;19935;-76
2022/01/05 12:01:19;;;;;;;;;;;4.60;91.60;;;;;;5017879;28;20697;-76
2022/01/05 12:04:01;;;;;;;;;;;4.70;91.60;;;;;;5022960;28;20420;-76
2022/01/05 12:06:30;;;;;;;;;;;4.70;91.80;;;;;;5021763;28;20545;-76
2022/01/05 12:08:57;;;;;;;;;;;4.70;91.80;;;;;;5021888;28;19940;-77
2022/01/05 12:11:27;;;;;;;;;;;4.70;91.50;;;;;;5023222;28;19963;-78
2022/01/05 12:13:55;;;;;;;;;;;4.60;91.40;;;;;;5023395;28;19929;-69
2022/01/05 12:16:22;;;;;;;;;;;4.70;91.50;;;;;;5022616;28;19929;-68
2022/01/05 12:19:03;;;;;;;;;;;4.70;91.50;;;;;;5021974;28;19964;-68
2022/01/05 12:21:41;;;;;;;;;;;4.70;91.60;;;;;;5028112;28;19949;-70
2022/01/05 12:24:07;;;;;;;;;;;4.70;91.50;;;;;;5022362;28;20770;-69
2022/01/05 12:26:34;;;;;;;;;;;4.70;91.40;;;;;;5022955;28;19929;-69
2022/01/05 12:29:02;;;;;;;;;;;4.70;91.50;;;;;;5021669;28;20433;-68
2022/01/05 12:31:43;;;;;;;;;;;4.70;91.30;;;;;;5022434;28;19948;-68
2022/01/05 12:34:10;;;;;;;;;;;4.80;91.20;;;;;;5006583;28;19963;-70
2022/01/05 12:36:37;;;;;;;;;;;4.70;91.20;;;;;;5023911;28;20013;-68
2022/01/05 12:39:04;;;;;;;;;;;4.80;91.20;;;;;;5023297;28;19936;-70
2022/01/05 12:41:40;;;;;;;;;;;4.80;91.40;;;;;;5024479;28;19991;-68
2022/01/05 12:44:31;;;;;;;;;;;4.80;91.40;;;;;;5023894;28;19979;-69
2022/01/05 12:46:58;;;;;;;;;;;4.80;91.40;;;;;;5023308;28;19929;-69
2022/01/05 12:49:26;;;;;;;;;;;4.80;91.40;;;;;;5016261;28;19929;-67
2022/01/05 12:52:03;;;;;;;;;;;4.80;91.30;;;;;;5024181;28;19929;-69
2022/01/05 12:54:31;;;;;;;;;;;4.70;91.00;;;;;;5017640;28;20031;-69
2022/01/05 12:56:59;;;;;;;;;;;4.70;91.10;;;;;;5023453;28;19952;-69
2022/01/05 12:59:29;;;;;;;;;;;4.70;91.10;;;;;;5016834;28;19929;-68
2022/01/05 13:01:57;;;;;;;;;;;4.70;91.40;;;;;;5015404;28;19930;-66
2022/01/05 13:04:26;;;;;;;;;;;4.70;91.40;;;;;;5023788;28;21396;-67
2022/01/05 13:06:54;;;;;;;;;;;4.70;91.50;;;;;;5023774;28;20020;-69
2022/01/05 13:09:26;;;;;;;;;;;4.70;91.60;;;;;;5020665;28;19940;-68
2022/01/05 13:11:55;;;;;;;;;;;4.70;91.80;;;;;;5019010;28;20467;-68
2022/01/05 13:14:22;;;;;;;;;;;4.70;91.90;;;;;;5016868;28;20553;-69
2022/01/05 13:16:51;;;;;;;;;;;4.70;91.80;;;;;;5018328;28;19936;-68
2022/01/05 13:19:22;;;;;;;;;;;4.70;91.70;;;;;;5023231;28;19975;-70
2022/01/05 13:21:49;;;;;;;;;;;4.60;91.70;;;;;;5022748;28;19935;-69
2022/01/05 13:24:16;;;;;;;;;;;4.60;91.50;;;;;;5014596;28;19937;-69
2022/01/05 13:26:59;;;;;;;;;;;4.60;91.60;;;;;;5014769;28;20372;-68
2022/01/05 13:29:28;;;;;;;;;;;4.60;91.70;;;;;;5020239;28;20107;-69
2022/01/05 13:31:56;;;;;;;;;;;4.60;91.70;;;;;;5021251;28;20019;-70
2022/01/05 13:34:30;;;;;;;;;;;4.60;91.70;;;;;;5016984;28;20223;-68
2022/01/05 13:36:57;;;;;;;;;;;4.60;91.80;;;;;;5017276;28;19929;-68
2022/01/05 13:39:40;;;;;;;;;;;4.60;91.90;;;;;;5020945;28;20427;-69
2022/01/05 13:42:08;;;;;;;;;;;4.60;91.90;;;;;;5023550;28;19991;-69
2022/01/05 13:44:35;;;;;;;;;;;4.60;91.90;;;;;;5021468;28;19929;-67
2022/01/05 13:47:05;;;;;;;;;;;4.60;92.00;;;;;;5013551;28;19929;-69
2022/01/05 13:49:31;;;;;;;;;;;4.60;92.20;;;;;;5020053;28;20003;-70
2022/01/05 13:52:01;;;;;;;;;;;4.60;92.30;;;;;;5027707;28;19945;-68
2022/01/05 13:54:28;;;;;;;;;;;4.60;92.30;;;;;;5025188;28;20004;-69
2022/01/05 13:56:55;;;;;;;;;;;4.60;92.70;;;;;;5027846;28;19929;-69
2022/01/05 13:59:21;;;;;;;;;;;4.60;92.40;;;;;;5020860;28;19931;-68
2022/01/05 14:01:55;;;;;;;;;;;4.60;92.40;;;;;;5025406;28;19936;-69
2022/01/05 14:04:23;;;;;;;;;;;4.60;92.30;;;;;;5025009;28;19933;-69
2022/01/05 14:06:57;;;;;;;;;;;4.60;92.30;;;;;;5027066;28;19933;-69
2022/01/05 14:09:28;;;;;;;;;;;4.60;92.20;;;;;;5025865;28;19999;-69
2022/01/05 14:11:57;;;;;;;;;;;4.60;91.80;;;;;;5021236;28;19936;-68
2022/01/05 14:14:24;;;;;;;;;;;4.60;91.80;;;;;;5017396;28;19972;-69
2022/01/05 14:16:51;;;;;;;;;;;4.60;91.80;;;;;;5024170;28;19933;-69
2022/01/05 14:19:18;;;;;;;;;;;4.60;91.80;;;;;;5025473;28;20029;-69
2022/01/05 14:21:47;;;;;;;;;;;4.60;91.50;;;;;;5024854;28;19929;-69
2022/01/05 14:24:14;;;;;;;;;;;4.60;91.40;;;;;;5021287;28;19937;-67
2022/01/05 14:26:41;;;;;;;;;;;4.60;91.50;;;;;;5024639;28;19929;-70
2022/01/05 14:29:09;;;;;;;;;;;4.60;91.50;;;;;;5025502;28;19929;-69
2022/01/05 14:31:36;;;;;;;;;;;4.50;91.50;;;;;;5022545;28;19933;-68
2022/01/05 14:34:03;;;;;;;;;;;4.60;91.40;;;;;;5023974;28;19936;-69
2022/01/05 14:36:35;;;;;;;;;;;4.60;91.40;;;;;;5027034;28;19929;-68
2022/01/05 14:39:04;;;;;;;;;;;4.50;91.40;;;;;;5020343;28;19929;-69